sensor_id;sensor_type;location;lat;lon;timestamp;P1;durP1;ratioP1;P2;durP2;ratioP2
41343;SDS011;27089;50.022;7.604;2022-12-01T00:00:40;39.57;;;13.60;;
41343;SDS011;27089;50.022;7.604;2022-12-01T00:03:07;55.50;;;15.77;;
41343;SDS011;27089;50.022;7.604;2022-12-01T00:05:35;33.30;;;13.67;;
41343;SDS011;27089;50.022;7.604;2022-12-01T00:08:03;44.97;;;13.63;;
41343;SDS011;27089;50.022;7.604;2022-12-01T00:10:31;42.37;;;14.43;;
41343;SDS011;27089;50.022;7.604;2022-12-01T00:12:58;67.00;;;15.50;;
41343;SDS011;27089;50.022;7.604;2022-12-01T00:15:27;54.33;;;14.57;;
41343;SDS011;27089;50.022;7.604;2022-12-01T00:17:55;72.57;;;15.23;;
41343;SDS011;27089;50.022;7.604;2022-12-01T00:20:23;53.07;;;14.17;;
41343;SDS011;27089;50.022;7.604;2022-12-01T00:22:52;39.67;;;15.10;;
41343;SDS011;27089;50.022;7.604;2022-12-01T00:25:19;34.00;;;14.27;;
41343;SDS011;27089;50.022;7.604;2022-12-01T00:27:46;47.50;;;14.40;;
41343;SDS011;27089;50.022;7.604;2022-12-01T00:30:14;36.67;;;15.30;;
41343;SDS011;27089;50.022;7.604;2022-12-01T00:32:42;33.93;;;13.33;;
41343;SDS011;27089;50.022;7.604;2022-12-01T00:35:09;35.03;;;13.97;;
41343;SDS011;27089;50.022;7.604;2022-12-01T00:37:36;32.43;;;14.37;;
41343;SDS011;27089;50.022;7.604;2022-12-01T00:40:06;31.07;;;14.23;;
41343;SDS011;27089;50.022;7.604;2022-12-01T00:42:34;37.40;;;13.90;;
41343;SDS011;27089;50.022;7.604;2022-12-01T00:45:01;26.27;;;12.93;;
41343;SDS011;27089;50.022;7.604;2022-12-01T00:47:28;30.87;;;14.13;;
41343;SDS011;27089;50.022;7.604;2022-12-01T00:49:55;35.40;;;15.10;;
41343;SDS011;27089;50.022;7.604;2022-12-01T00:52:22;27.03;;;13.80;;
41343;SDS011;27089;50.022;7.604;2022-12-01T00:54:49;30.33;;;13.07;;
41343;SDS011;27089;50.022;7.604;2022-12-01T00:57:17;25.87;;;13.23;;
41343;SDS011;27089;50.022;7.604;2022-12-01T00:59:44;29.00;;;13.20;;
41343;SDS011;27089;50.022;7.604;2022-12-01T01:02:12;34.97;;;14.20;;
41343;SDS011;27089;50.022;7.604;2022-12-01T01:04:39;29.03;;;14.13;;
41343;SDS011;27089;50.022;7.604;2022-12-01T01:07:06;32.83;;;14.33;;
41343;SDS011;27089;50.022;7.604;2022-12-01T01:09:32;31.97;;;13.60;;
41343;SDS011;27089;50.022;7.604;2022-12-01T01:12:00;30.97;;;14.60;;
41343;SDS011;27089;50.022;7.604;2022-12-01T01:14:28;32.07;;;14.40;;
41343;SDS011;27089;50.022;7.604;2022-12-01T01:16:55;34.03;;;13.73;;
41343;SDS011;27089;50.022;7.604;2022-12-01T01:19:22;31.87;;;14.77;;
41343;SDS011;27089;50.022;7.604;2022-12-01T01:21:49;26.13;;;13.17;;
41343;SDS011;27089;50.022;7.604;2022-12-01T01:24:16;34.70;;;14.40;;
41343;SDS011;27089;50.022;7.604;2022-12-01T01:26:43;34.13;;;13.50;;
41343;SDS011;27089;50.022;7.604;2022-12-01T01:29:10;31.60;;;13.07;;
41343;SDS011;27089;50.022;7.604;2022-12-01T01:31:38;30.83;;;14.20;;
41343;SDS011;27089;50.022;7.604;2022-12-01T01:34:05;26.37;;;12.57;;
41343;SDS011;27089;50.022;7.604;2022-12-01T01:36:32;24.10;;;12.97;;
41343;SDS011;27089;50.022;7.604;2022-12-01T01:38:59;18.83;;;10.43;;
41343;SDS011;27089;50.022;7.604;2022-12-01T01:41:26;22.50;;;10.47;;
41343;SDS011;27089;50.022;7.604;2022-12-01T01:43:54;17.20;;;10.13;;
41343;SDS011;27089;50.022;7.604;2022-12-01T01:46:23;15.77;;;9.47;;
41343;SDS011;27089;50.022;7.604;2022-12-01T01:48:54;16.73;;;9.30;;
41343;SDS011;27089;50.022;7.604;2022-12-01T01:51:25;18.07;;;9.70;;
41343;SDS011;27089;50.022;7.604;2022-12-01T01:53:57;15.93;;;9.53;;
41343;SDS011;27089;50.022;7.604;2022-12-01T01:56:27;13.53;;;7.20;;
41343;SDS011;27089;50.022;7.604;2022-12-01T01:58:55;13.47;;;8.17;;
41343;SDS011;27089;50.022;7.604;2022-12-01T02:01:22;10.07;;;6.60;;
41343;SDS011;27089;50.022;7.604;2022-12-01T02:03:49;11.10;;;6.37;;
41343;SDS011;27089;50.022;7.604;2022-12-01T02:06:20;10.43;;;7.17;;
41343;SDS011;27089;50.022;7.604;2022-12-01T02:08:48;11.00;;;6.47;;
41343;SDS011;27089;50.022;7.604;2022-12-01T02:11:22;10.20;;;5.50;;
41343;SDS011;27089;50.022;7.604;2022-12-01T02:14:15;9.40;;;5.47;;
41343;SDS011;27089;50.022;7.604;2022-12-01T02:16:53;9.03;;;5.80;;
41343;SDS011;27089;50.022;7.604;2022-12-01T02:19:35;11.50;;;6.23;;
41343;SDS011;27089;50.022;7.604;2022-12-01T02:22:16;10.93;;;6.37;;
41343;SDS011;27089;50.022;7.604;2022-12-01T02:24:51;12.77;;;7.60;;
41343;SDS011;27089;50.022;7.604;2022-12-01T02:27:36;12.57;;;7.63;;
41343;SDS011;27089;50.022;7.604;2022-12-01T02:30:27;13.87;;;7.20;;
41343;SDS011;27089;50.022;7.604;2022-12-01T02:33:01;13.57;;;8.03;;
41343;SDS011;27089;50.022;7.604;2022-12-01T02:35:33;15.10;;;8.53;;
41343;SDS011;27089;50.022;7.604;2022-12-01T02:38:08;16.60;;;8.83;;
41343;SDS011;27089;50.022;7.604;2022-12-01T02:40:40;12.90;;;7.57;;
41343;SDS011;27089;50.022;7.604;2022-12-01T02:43:15;16.10;;;9.10;;
41343;SDS011;27089;50.022;7.604;2022-12-01T02:45:49;14.77;;;7.80;;
41343;SDS011;27089;50.022;7.604;2022-12-01T02:48:21;14.27;;;7.63;;
41343;SDS011;27089;50.022;7.604;2022-12-01T02:50:52;12.60;;;7.17;;
41343;SDS011;27089;50.022;7.604;2022-12-01T02:53:21;13.10;;;7.73;;
41343;SDS011;27089;50.022;7.604;2022-12-01T02:55:48;11.83;;;6.53;;
41343;SDS011;27089;50.022;7.604;2022-12-01T02:58:17;13.73;;;7.17;;
41343;SDS011;27089;50.022;7.604;2022-12-01T03:00:48;11.27;;;6.80;;
41343;SDS011;27089;50.022;7.604;2022-12-01T03:03:31;14.60;;;8.00;;
41343;SDS011;27089;50.022;7.604;2022-12-01T03:06:13;15.97;;;7.90;;
41343;SDS011;27089;50.022;7.604;2022-12-01T03:08:47;13.60;;;8.00;;
41343;SDS011;27089;50.022;7.604;2022-12-01T03:11:22;11.20;;;7.23;;
41343;SDS011;27089;50.022;7.604;2022-12-01T03:14:03;13.00;;;7.30;;
41343;SDS011;27089;50.022;7.604;2022-12-01T03:16:37;12.90;;;6.73;;
41343;SDS011;27089;50.022;7.604;2022-12-01T03:19:13;11.07;;;6.63;;
41343;SDS011;27089;50.022;7.604;2022-12-01T03:21:48;10.57;;;6.20;;
41343;SDS011;27089;50.022;7.604;2022-12-01T03:24:21;11.87;;;7.00;;
41343;SDS011;27089;50.022;7.604;2022-12-01T03:26:53;11.53;;;7.53;;
41343;SDS011;27089;50.022;7.604;2022-12-01T03:29:23;12.70;;;7.47;;
41343;SDS011;27089;50.022;7.604;2022-12-01T03:31:56;17.10;;;8.33;;
41343;SDS011;27089;50.022;7.604;2022-12-01T03:34:28;12.17;;;7.13;;
41343;SDS011;27089;50.022;7.604;2022-12-01T03:37:02;12.63;;;6.53;;
41343;SDS011;27089;50.022;7.604;2022-12-01T03:39:33;14.23;;;7.63;;
41343;SDS011;27089;50.022;7.604;2022-12-01T03:42:04;13.77;;;8.27;;
41343;SDS011;27089;50.022;7.604;2022-12-01T03:44:38;13.50;;;7.93;;
41343;SDS011;27089;50.022;7.604;2022-12-01T03:47:13;12.97;;;8.03;;
41343;SDS011;27089;50.022;7.604;2022-12-01T03:49:42;10.83;;;7.00;;
41343;SDS011;27089;50.022;7.604;2022-12-01T03:52:14;11.30;;;6.47;;
41343;SDS011;27089;50.022;7.604;2022-12-01T03:54:48;9.23;;;6.10;;
41343;SDS011;27089;50.022;7.604;2022-12-01T03:57:24;7.43;;;5.03;;
41343;SDS011;27089;50.022;7.604;2022-12-01T03:59:54;11.23;;;7.63;;
41343;SDS011;27089;50.022;7.604;2022-12-01T04:02:23;11.53;;;7.80;;
41343;SDS011;27089;50.022;7.604;2022-12-01T04:04:52;17.27;;;12.10;;
41343;SDS011;27089;50.022;7.604;2022-12-01T04:07:19;17.93;;;12.70;;
41343;SDS011;27089;50.022;7.604;2022-12-01T04:09:47;26.03;;;17.20;;
41343;SDS011;27089;50.022;7.604;2022-12-01T04:12:14;20.37;;;14.43;;
41343;SDS011;27089;50.022;7.604;2022-12-01T04:14:57;9.57;;;6.57;;
41343;SDS011;27089;50.022;7.604;2022-12-01T04:17:27;5.40;;;3.43;;
41343;SDS011;27089;50.022;7.604;2022-12-01T04:19:54;5.03;;;4.07;;
41343;SDS011;27089;50.022;7.604;2022-12-01T04:22:21;5.13;;;2.97;;
41343;SDS011;27089;50.022;7.604;2022-12-01T04:24:49;3.57;;;2.83;;
41343;SDS011;27089;50.022;7.604;2022-12-01T04:27:16;4.00;;;2.70;;
41343;SDS011;27089;50.022;7.604;2022-12-01T04:29:43;5.13;;;3.20;;
41343;SDS011;27089;50.022;7.604;2022-12-01T04:32:10;8.00;;;4.87;;
41343;SDS011;27089;50.022;7.604;2022-12-01T04:34:39;4.83;;;2.77;;
41343;SDS011;27089;50.022;7.604;2022-12-01T04:37:06;4.87;;;3.10;;
41343;SDS011;27089;50.022;7.604;2022-12-01T04:39:34;4.57;;;3.00;;
41343;SDS011;27089;50.022;7.604;2022-12-01T04:42:01;4.13;;;2.50;;
41343;SDS011;27089;50.022;7.604;2022-12-01T04:44:28;4.43;;;2.80;;
41343;SDS011;27089;50.022;7.604;2022-12-01T04:46:55;3.60;;;2.73;;
41343;SDS011;27089;50.022;7.604;2022-12-01T04:49:22;5.67;;;2.90;;
41343;SDS011;27089;50.022;7.604;2022-12-01T04:51:50;3.43;;;2.50;;
41343;SDS011;27089;50.022;7.604;2022-12-01T04:54:17;4.17;;;2.67;;
41343;SDS011;27089;50.022;7.604;2022-12-01T04:56:45;4.03;;;2.60;;
41343;SDS011;27089;50.022;7.604;2022-12-01T04:59:13;3.83;;;2.30;;
41343;SDS011;27089;50.022;7.604;2022-12-01T05:01:40;3.93;;;2.77;;
41343;SDS011;27089;50.022;7.604;2022-12-01T05:04:09;4.17;;;2.80;;
41343;SDS011;27089;50.022;7.604;2022-12-01T05:06:36;4.00;;;2.27;;
41343;SDS011;27089;50.022;7.604;2022-12-01T05:09:04;3.50;;;2.47;;
41343;SDS011;27089;50.022;7.604;2022-12-01T05:11:32;3.93;;;2.30;;
41343;SDS011;27089;50.022;7.604;2022-12-01T05:13:59;2.97;;;1.93;;
41343;SDS011;27089;50.022;7.604;2022-12-01T05:16:27;4.30;;;2.10;;
41343;SDS011;27089;50.022;7.604;2022-12-01T05:18:56;6.37;;;2.77;;
41343;SDS011;27089;50.022;7.604;2022-12-01T05:21:44;5.93;;;3.50;;
41343;SDS011;27089;50.022;7.604;2022-12-01T05:24:13;4.63;;;2.80;;
41343;SDS011;27089;50.022;7.604;2022-12-01T05:26:41;3.20;;;2.53;;
41343;SDS011;27089;50.022;7.604;2022-12-01T05:29:09;3.20;;;2.40;;
41343;SDS011;27089;50.022;7.604;2022-12-01T05:31:37;3.23;;;2.40;;
41343;SDS011;27089;50.022;7.604;2022-12-01T05:34:04;3.10;;;2.40;;
41343;SDS011;27089;50.022;7.604;2022-12-01T05:36:31;2.50;;;2.20;;
41343;SDS011;27089;50.022;7.604;2022-12-01T05:38:58;2.80;;;2.10;;
41343;SDS011;27089;50.022;7.604;2022-12-01T05:41:27;2.50;;;2.20;;
41343;SDS011;27089;50.022;7.604;2022-12-01T05:43:54;2.63;;;2.10;;
41343;SDS011;27089;50.022;7.604;2022-12-01T05:46:21;2.60;;;1.90;;
41343;SDS011;27089;50.022;7.604;2022-12-01T05:48:48;2.50;;;1.90;;
41343;SDS011;27089;50.022;7.604;2022-12-01T05:51:15;2.43;;;1.83;;
41343;SDS011;27089;50.022;7.604;2022-12-01T05:53:42;2.70;;;2.00;;
41343;SDS011;27089;50.022;7.604;2022-12-01T05:56:10;2.63;;;1.77;;
41343;SDS011;27089;50.022;7.604;2022-12-01T05:58:38;2.43;;;1.93;;
41343;SDS011;27089;50.022;7.604;2022-12-01T06:01:05;2.73;;;2.00;;
41343;SDS011;27089;50.022;7.604;2022-12-01T06:03:32;3.03;;;2.20;;
41343;SDS011;27089;50.022;7.604;2022-12-01T06:05:59;2.63;;;2.00;;
41343;SDS011;27089;50.022;7.604;2022-12-01T06:08:27;2.80;;;1.93;;
41343;SDS011;27089;50.022;7.604;2022-12-01T06:10:53;3.07;;;2.23;;
41343;SDS011;27089;50.022;7.604;2022-12-01T06:13:21;3.00;;;2.20;;
41343;SDS011;27089;50.022;7.604;2022-12-01T06:15:55;3.93;;;2.33;;
41343;SDS011;27089;50.022;7.604;2022-12-01T06:18:24;3.67;;;2.40;;
41343;SDS011;27089;50.022;7.604;2022-12-01T06:20:51;2.90;;;2.17;;
41343;SDS011;27089;50.022;7.604;2022-12-01T06:23:18;3.73;;;2.50;;
41343;SDS011;27089;50.022;7.604;2022-12-01T06:25:45;3.17;;;2.20;;
41343;SDS011;27089;50.022;7.604;2022-12-01T06:28:12;3.17;;;2.03;;
41343;SDS011;27089;50.022;7.604;2022-12-01T06:30:39;4.23;;;2.43;;
41343;SDS011;27089;50.022;7.604;2022-12-01T06:33:08;3.30;;;2.40;;
41343;SDS011;27089;50.022;7.604;2022-12-01T06:35:35;3.90;;;2.70;;
41343;SDS011;27089;50.022;7.604;2022-12-01T06:38:02;3.03;;;2.50;;
41343;SDS011;27089;50.022;7.604;2022-12-01T06:40:30;3.23;;;2.43;;
41343;SDS011;27089;50.022;7.604;2022-12-01T06:42:58;5.10;;;3.83;;
41343;SDS011;27089;50.022;7.604;2022-12-01T06:45:26;3.93;;;2.57;;
41343;SDS011;27089;50.022;7.604;2022-12-01T06:47:53;3.20;;;2.47;;
41343;SDS011;27089;50.022;7.604;2022-12-01T06:50:22;4.33;;;2.97;;
41343;SDS011;27089;50.022;7.604;2022-12-01T06:52:49;3.70;;;2.70;;
41343;SDS011;27089;50.022;7.604;2022-12-01T06:55:16;4.40;;;2.60;;
41343;SDS011;27089;50.022;7.604;2022-12-01T06:57:44;3.60;;;2.47;;
41343;SDS011;27089;50.022;7.604;2022-12-01T07:00:11;4.37;;;3.13;;
41343;SDS011;27089;50.022;7.604;2022-12-01T07:02:39;4.77;;;3.30;;
41343;SDS011;27089;50.022;7.604;2022-12-01T07:05:06;3.43;;;2.90;;
41343;SDS011;27089;50.022;7.604;2022-12-01T07:07:35;6.00;;;3.17;;
41343;SDS011;27089;50.022;7.604;2022-12-01T07:10:03;4.63;;;2.60;;
41343;SDS011;27089;50.022;7.604;2022-12-01T07:12:31;3.73;;;2.83;;
41343;SDS011;27089;50.022;7.604;2022-12-01T07:14:58;3.97;;;2.83;;
41343;SDS011;27089;50.022;7.604;2022-12-01T07:17:25;3.00;;;2.70;;
41343;SDS011;27089;50.022;7.604;2022-12-01T07:19:53;4.07;;;2.80;;
41343;SDS011;27089;50.022;7.604;2022-12-01T07:22:20;3.10;;;2.13;;
41343;SDS011;27089;50.022;7.604;2022-12-01T07:24:49;3.67;;;2.60;;
41343;SDS011;27089;50.022;7.604;2022-12-01T07:27:16;2.87;;;2.37;;
41343;SDS011;27089;50.022;7.604;2022-12-01T07:29:43;4.27;;;3.23;;
41343;SDS011;27089;50.022;7.604;2022-12-01T07:32:10;4.07;;;2.43;;
41343;SDS011;27089;50.022;7.604;2022-12-01T07:34:37;3.70;;;2.73;;
41343;SDS011;27089;50.022;7.604;2022-12-01T07:37:04;4.20;;;2.57;;
41343;SDS011;27089;50.022;7.604;2022-12-01T07:39:31;5.90;;;2.70;;
41343;SDS011;27089;50.022;7.604;2022-12-01T07:41:59;4.73;;;3.37;;
41343;SDS011;27089;50.022;7.604;2022-12-01T07:44:26;3.70;;;2.70;;
41343;SDS011;27089;50.022;7.604;2022-12-01T07:46:53;3.60;;;2.47;;
41343;SDS011;27089;50.022;7.604;2022-12-01T07:49:20;3.67;;;2.50;;
41343;SDS011;27089;50.022;7.604;2022-12-01T07:51:47;4.27;;;2.53;;
41343;SDS011;27089;50.022;7.604;2022-12-01T07:54:14;4.37;;;2.80;;
41343;SDS011;27089;50.022;7.604;2022-12-01T07:56:41;5.13;;;3.20;;
41343;SDS011;27089;50.022;7.604;2022-12-01T07:59:10;3.33;;;2.57;;
41343;SDS011;27089;50.022;7.604;2022-12-01T08:01:37;5.00;;;3.07;;
41343;SDS011;27089;50.022;7.604;2022-12-01T08:04:04;6.47;;;4.20;;
41343;SDS011;27089;50.022;7.604;2022-12-01T08:06:31;5.90;;;4.10;;
41343;SDS011;27089;50.022;7.604;2022-12-01T08:08:58;6.57;;;4.50;;
41343;SDS011;27089;50.022;7.604;2022-12-01T08:11:25;8.90;;;5.13;;
41343;SDS011;27089;50.022;7.604;2022-12-01T08:13:54;7.87;;;5.20;;
41343;SDS011;27089;50.022;7.604;2022-12-01T08:16:23;9.40;;;5.33;;
41343;SDS011;27089;50.022;7.604;2022-12-01T08:18:51;9.53;;;6.00;;
41343;SDS011;27089;50.022;7.604;2022-12-01T08:21:19;7.80;;;4.30;;
41343;SDS011;27089;50.022;7.604;2022-12-01T08:23:47;7.30;;;4.67;;
41343;SDS011;27089;50.022;7.604;2022-12-01T08:26:18;7.50;;;4.53;;
41343;SDS011;27089;50.022;7.604;2022-12-01T08:28:45;8.60;;;5.13;;
41343;SDS011;27089;50.022;7.604;2022-12-01T08:31:14;6.80;;;4.80;;
41343;SDS011;27089;50.022;7.604;2022-12-01T08:33:43;7.27;;;4.53;;
41343;SDS011;27089;50.022;7.604;2022-12-01T08:36:11;7.73;;;4.23;;
41343;SDS011;27089;50.022;7.604;2022-12-01T08:38:38;5.63;;;3.97;;
41343;SDS011;27089;50.022;7.604;2022-12-01T08:41:05;4.97;;;3.63;;
41343;SDS011;27089;50.022;7.604;2022-12-01T08:43:34;5.60;;;3.33;;
41343;SDS011;27089;50.022;7.604;2022-12-01T08:46:04;5.13;;;3.17;;
41343;SDS011;27089;50.022;7.604;2022-12-01T08:48:31;6.33;;;4.00;;
41343;SDS011;27089;50.022;7.604;2022-12-01T08:51:06;6.60;;;4.00;;
41343;SDS011;27089;50.022;7.604;2022-12-01T08:53:36;4.20;;;3.23;;
41343;SDS011;27089;50.022;7.604;2022-12-01T08:56:04;5.23;;;3.10;;
41343;SDS011;27089;50.022;7.604;2022-12-01T08:58:33;5.90;;;3.70;;
41343;SDS011;27089;50.022;7.604;2022-12-01T09:01:00;6.07;;;4.27;;
41343;SDS011;27089;50.022;7.604;2022-12-01T09:03:29;6.83;;;4.27;;
41343;SDS011;27089;50.022;7.604;2022-12-01T09:06:00;5.93;;;3.77;;
41343;SDS011;27089;50.022;7.604;2022-12-01T09:08:30;5.43;;;3.60;;
41343;SDS011;27089;50.022;7.604;2022-12-01T09:10:58;7.43;;;4.37;;
41343;SDS011;27089;50.022;7.604;2022-12-01T09:13:26;5.93;;;4.13;;
41343;SDS011;27089;50.022;7.604;2022-12-01T09:15:54;6.17;;;4.00;;
41343;SDS011;27089;50.022;7.604;2022-12-01T09:18:22;4.80;;;3.47;;
41343;SDS011;27089;50.022;7.604;2022-12-01T09:20:49;9.03;;;4.80;;
41343;SDS011;27089;50.022;7.604;2022-12-01T09:23:16;6.40;;;3.83;;
41343;SDS011;27089;50.022;7.604;2022-12-01T09:25:45;6.73;;;4.07;;
41343;SDS011;27089;50.022;7.604;2022-12-01T09:28:12;8.13;;;4.40;;
41343;SDS011;27089;50.022;7.604;2022-12-01T09:30:39;5.93;;;3.80;;
41343;SDS011;27089;50.022;7.604;2022-12-01T09:33:06;7.93;;;4.67;;
41343;SDS011;27089;50.022;7.604;2022-12-01T09:35:34;6.27;;;4.20;;
41343;SDS011;27089;50.022;7.604;2022-12-01T09:38:00;6.53;;;4.37;;
41343;SDS011;27089;50.022;7.604;2022-12-01T09:40:29;6.63;;;4.30;;
41343;SDS011;27089;50.022;7.604;2022-12-01T09:43:02;8.20;;;4.80;;
41343;SDS011;27089;50.022;7.604;2022-12-01T09:45:36;9.40;;;5.67;;
41343;SDS011;27089;50.022;7.604;2022-12-01T09:48:08;7.80;;;5.30;;
41343;SDS011;27089;50.022;7.604;2022-12-01T09:50:47;8.33;;;4.70;;
41343;SDS011;27089;50.022;7.604;2022-12-01T09:53:15;10.47;;;5.53;;
41343;SDS011;27089;50.022;7.604;2022-12-01T09:55:45;9.50;;;5.07;;
41343;SDS011;27089;50.022;7.604;2022-12-01T09:58:14;7.97;;;5.20;;
41343;SDS011;27089;50.022;7.604;2022-12-01T10:00:43;9.67;;;5.70;;
41343;SDS011;27089;50.022;7.604;2022-12-01T10:03:15;10.90;;;6.13;;
41343;SDS011;27089;50.022;7.604;2022-12-01T10:05:55;10.70;;;6.40;;
41343;SDS011;27089;50.022;7.604;2022-12-01T10:08:26;15.60;;;6.87;;
41343;SDS011;27089;50.022;7.604;2022-12-01T10:10:57;17.13;;;10.07;;
41343;SDS011;27089;50.022;7.604;2022-12-01T10:13:32;8.63;;;5.63;;
41343;SDS011;27089;50.022;7.604;2022-12-01T10:16:02;39.67;;;20.43;;
41343;SDS011;27089;50.022;7.604;2022-12-01T10:18:38;10.23;;;6.80;;
41343;SDS011;27089;50.022;7.604;2022-12-01T10:21:15;24.97;;;14.97;;
41343;SDS011;27089;50.022;7.604;2022-12-01T10:24:01;10.57;;;6.90;;
41343;SDS011;27089;50.022;7.604;2022-12-01T10:26:48;8.90;;;5.97;;
41343;SDS011;27089;50.022;7.604;2022-12-01T10:29:24;9.07;;;6.37;;
41343;SDS011;27089;50.022;7.604;2022-12-01T10:31:56;7.97;;;5.47;;
41343;SDS011;27089;50.022;7.604;2022-12-01T10:34:27;11.20;;;6.37;;
41343;SDS011;27089;50.022;7.604;2022-12-01T10:36:57;10.03;;;6.40;;
41343;SDS011;27089;50.022;7.604;2022-12-01T10:39:26;10.57;;;7.63;;
41343;SDS011;27089;50.022;7.604;2022-12-01T10:41:58;11.60;;;7.70;;
41343;SDS011;27089;50.022;7.604;2022-12-01T10:44:30;10.23;;;7.07;;
41343;SDS011;27089;50.022;7.604;2022-12-01T10:46:59;10.43;;;7.43;;
41343;SDS011;27089;50.022;7.604;2022-12-01T10:49:34;11.70;;;7.47;;
41343;SDS011;27089;50.022;7.604;2022-12-01T10:52:03;12.60;;;7.33;;
41343;SDS011;27089;50.022;7.604;2022-12-01T10:54:31;11.00;;;7.80;;
41343;SDS011;27089;50.022;7.604;2022-12-01T10:57:00;13.20;;;7.80;;
41343;SDS011;27089;50.022;7.604;2022-12-01T10:59:33;13.43;;;8.13;;
41343;SDS011;27089;50.022;7.604;2022-12-01T11:02:04;14.97;;;8.77;;
41343;SDS011;27089;50.022;7.604;2022-12-01T11:04:41;15.80;;;8.37;;
41343;SDS011;27089;50.022;7.604;2022-12-01T11:07:15;15.67;;;8.83;;
41343;SDS011;27089;50.022;7.604;2022-12-01T11:09:45;14.23;;;8.70;;
41343;SDS011;27089;50.022;7.604;2022-12-01T11:12:22;13.30;;;8.43;;
41343;SDS011;27089;50.022;7.604;2022-12-01T11:14:52;16.30;;;9.23;;
41343;SDS011;27089;50.022;7.604;2022-12-01T11:17:30;14.50;;;8.40;;
41343;SDS011;27089;50.022;7.604;2022-12-01T11:20:20;15.67;;;10.57;;
41343;SDS011;27089;50.022;7.604;2022-12-01T11:22:52;16.53;;;9.83;;
41343;SDS011;27089;50.022;7.604;2022-12-01T11:25:19;15.50;;;9.60;;
41343;SDS011;27089;50.022;7.604;2022-12-01T11:27:48;17.17;;;11.17;;
41343;SDS011;27089;50.022;7.604;2022-12-01T11:30:23;20.07;;;14.13;;
41343;SDS011;27089;50.022;7.604;2022-12-01T11:32:54;21.00;;;13.63;;
41343;SDS011;27089;50.022;7.604;2022-12-01T11:35:23;17.23;;;11.73;;
41343;SDS011;27089;50.022;7.604;2022-12-01T11:37:56;16.07;;;9.00;;
41343;SDS011;27089;50.022;7.604;2022-12-01T11:40:25;13.83;;;9.20;;
41343;SDS011;27089;50.022;7.604;2022-12-01T11:42:54;15.97;;;10.53;;
41343;SDS011;27089;50.022;7.604;2022-12-01T11:45:27;15.87;;;10.63;;
41343;SDS011;27089;50.022;7.604;2022-12-01T11:47:58;16.47;;;10.43;;
41343;SDS011;27089;50.022;7.604;2022-12-01T11:50:27;14.73;;;10.03;;
41343;SDS011;27089;50.022;7.604;2022-12-01T11:52:55;17.73;;;10.70;;
41343;SDS011;27089;50.022;7.604;2022-12-01T11:55:24;16.50;;;10.23;;
41343;SDS011;27089;50.022;7.604;2022-12-01T11:57:52;18.70;;;9.60;;
41343;SDS011;27089;50.022;7.604;2022-12-01T12:00:22;16.00;;;9.23;;
41343;SDS011;27089;50.022;7.604;2022-12-01T12:02:57;16.23;;;10.40;;
41343;SDS011;27089;50.022;7.604;2022-12-01T12:08:44;16.13;;;9.60;;
41343;SDS011;27089;50.022;7.604;2022-12-01T12:11:26;16.43;;;10.10;;
41343;SDS011;27089;50.022;7.604;2022-12-01T12:14:02;17.27;;;10.70;;
41343;SDS011;27089;50.022;7.604;2022-12-01T12:16:42;19.47;;;11.30;;
41343;SDS011;27089;50.022;7.604;2022-12-01T12:19:24;16.47;;;10.33;;
41343;SDS011;27089;50.022;7.604;2022-12-01T12:22:06;16.47;;;8.80;;
41343;SDS011;27089;50.022;7.604;2022-12-01T12:24:51;15.30;;;9.80;;
41343;SDS011;27089;50.022;7.604;2022-12-01T12:27:31;18.33;;;9.77;;
41343;SDS011;27089;50.022;7.604;2022-12-01T12:30:14;17.00;;;10.17;;
41343;SDS011;27089;50.022;7.604;2022-12-01T12:32:52;18.37;;;11.00;;
41343;SDS011;27089;50.022;7.604;2022-12-01T12:35:43;19.43;;;11.47;;
41343;SDS011;27089;50.022;7.604;2022-12-01T12:38:24;18.53;;;11.47;;
41343;SDS011;27089;50.022;7.604;2022-12-01T12:41:15;20.27;;;11.73;;
41343;SDS011;27089;50.022;7.604;2022-12-01T12:43:51;21.03;;;12.17;;
41343;SDS011;27089;50.022;7.604;2022-12-01T12:46:31;19.13;;;11.53;;
41343;SDS011;27089;50.022;7.604;2022-12-01T12:49:09;19.97;;;11.20;;
41343;SDS011;27089;50.022;7.604;2022-12-01T12:51:48;17.73;;;11.13;;
41343;SDS011;27089;50.022;7.604;2022-12-01T12:54:20;23.20;;;12.37;;
41343;SDS011;27089;50.022;7.604;2022-12-01T12:56:53;18.97;;;11.77;;
41343;SDS011;27089;50.022;7.604;2022-12-01T12:59:28;22.17;;;12.57;;
41343;SDS011;27089;50.022;7.604;2022-12-01T13:02:03;18.80;;;9.77;;
41343;SDS011;27089;50.022;7.604;2022-12-01T13:04:38;18.70;;;10.10;;
41343;SDS011;27089;50.022;7.604;2022-12-01T13:07:16;20.40;;;12.10;;
41343;SDS011;27089;50.022;7.604;2022-12-01T13:09:51;45.90;;;27.90;;
41343;SDS011;27089;50.022;7.604;2022-12-01T13:12:24;27.10;;;16.70;;
41343;SDS011;27089;50.022;7.604;2022-12-01T13:14:54;26.80;;;16.63;;
41343;SDS011;27089;50.022;7.604;2022-12-01T13:17:26;18.77;;;10.23;;
41343;SDS011;27089;50.022;7.604;2022-12-01T13:19:58;24.10;;;15.97;;
41343;SDS011;27089;50.022;7.604;2022-12-01T13:22:28;22.87;;;14.53;;
41343;SDS011;27089;50.022;7.604;2022-12-01T13:24:57;21.73;;;12.27;;
41343;SDS011;27089;50.022;7.604;2022-12-01T13:27:24;22.57;;;11.10;;
41343;SDS011;27089;50.022;7.604;2022-12-01T13:29:55;22.43;;;13.77;;
41343;SDS011;27089;50.022;7.604;2022-12-01T13:32:24;22.90;;;12.83;;
41343;SDS011;27089;50.022;7.604;2022-12-01T13:34:58;23.87;;;12.70;;
41343;SDS011;27089;50.022;7.604;2022-12-01T13:37:28;23.27;;;12.57;;
41343;SDS011;27089;50.022;7.604;2022-12-01T13:40:06;22.00;;;12.10;;
41343;SDS011;27089;50.022;7.604;2022-12-01T13:42:35;23.13;;;12.50;;
41343;SDS011;27089;50.022;7.604;2022-12-01T13:45:07;22.10;;;13.10;;
41343;SDS011;27089;50.022;7.604;2022-12-01T13:47:47;20.07;;;11.43;;
41343;SDS011;27089;50.022;7.604;2022-12-01T13:53:31;24.70;;;13.37;;
41343;SDS011;27089;50.022;7.604;2022-12-01T13:56:03;26.03;;;13.23;;
41343;SDS011;27089;50.022;7.604;2022-12-01T13:58:51;24.50;;;12.33;;
41343;SDS011;27089;50.022;7.604;2022-12-01T14:13:01;23.80;;;14.00;;
41343;SDS011;27089;50.022;7.604;2022-12-01T14:15:34;30.93;;;16.40;;
41343;SDS011;27089;50.022;7.604;2022-12-01T14:18:14;26.57;;;15.13;;
41343;SDS011;27089;50.022;7.604;2022-12-01T14:20:49;27.73;;;16.50;;
41343;SDS011;27089;50.022;7.604;2022-12-01T14:23:19;28.10;;;17.03;;
41343;SDS011;27089;50.022;7.604;2022-12-01T14:25:57;29.70;;;17.37;;
41343;SDS011;27089;50.022;7.604;2022-12-01T14:34:49;28.50;;;15.90;;
41343;SDS011;27089;50.022;7.604;2022-12-01T14:37:19;29.57;;;15.63;;
41343;SDS011;27089;50.022;7.604;2022-12-01T14:39:49;34.57;;;16.63;;
41343;SDS011;27089;50.022;7.604;2022-12-01T14:42:24;26.73;;;15.80;;
41343;SDS011;27089;50.022;7.604;2022-12-01T14:45:12;29.57;;;16.80;;
41343;SDS011;27089;50.022;7.604;2022-12-01T14:47:43;35.67;;;21.43;;
41343;SDS011;27089;50.022;7.604;2022-12-01T14:50:17;32.70;;;20.33;;
41343;SDS011;27089;50.022;7.604;2022-12-01T14:52:49;32.00;;;16.57;;
41343;SDS011;27089;50.022;7.604;2022-12-01T14:55:20;32.27;;;18.30;;
41343;SDS011;27089;50.022;7.604;2022-12-01T14:57:52;32.80;;;18.03;;
41343;SDS011;27089;50.022;7.604;2022-12-01T15:00:29;31.90;;;16.60;;
41343;SDS011;27089;50.022;7.604;2022-12-01T15:02:59;36.27;;;18.90;;
41343;SDS011;27089;50.022;7.604;2022-12-01T15:05:30;30.50;;;15.93;;
41343;SDS011;27089;50.022;7.604;2022-12-01T15:08:12;36.50;;;17.93;;
41343;SDS011;27089;50.022;7.604;2022-12-01T15:10:47;30.17;;;16.10;;
41343;SDS011;27089;50.022;7.604;2022-12-01T15:13:18;34.67;;;17.53;;
41343;SDS011;27089;50.022;7.604;2022-12-01T15:15:50;31.50;;;17.37;;
41343;SDS011;27089;50.022;7.604;2022-12-01T15:18:22;36.07;;;18.67;;
41343;SDS011;27089;50.022;7.604;2022-12-01T15:20:54;34.50;;;17.73;;